createdAt,value
2018-06-23T00:01:02.518Z,8.79
2018-06-23T00:03:31.733Z,8.52
2018-06-23T00:06:00.901Z,8.35
2018-06-23T00:08:30.191Z,8.42
2018-06-23T00:10:59.401Z,8.41
2018-06-23T00:13:28.634Z,8.43
2018-06-23T00:15:57.841Z,8.25
2018-06-23T00:18:27.042Z,8.27
2018-06-23T00:20:56.369Z,8.24
2018-06-23T00:23:25.563Z,8.34
2018-06-23T00:26:00.118Z,8.39
2018-06-23T00:28:29.351Z,8.38
2018-06-23T00:30:58.529Z,8.39
2018-06-23T00:33:27.770Z,8.41
2018-06-23T00:35:56.966Z,8.41
2018-06-23T00:38:26.155Z,8.46
2018-06-23T00:40:55.384Z,8.42
2018-06-23T00:43:24.583Z,8.42
2018-06-23T00:45:54.170Z,8.41
2018-06-23T00:48:23.371Z,8.41
2018-06-23T00:50:52.575Z,8.51
2018-06-23T00:53:21.774Z,8.49
2018-06-23T00:55:50.992Z,8.49
2018-06-23T00:58:20.222Z,8.54
2018-06-23T01:00:49.406Z,8.50
2018-06-23T01:03:19.644Z,8.53
2018-06-23T01:05:48.856Z,8.50
2018-06-23T01:08:18.043Z,8.53
2018-06-23T01:10:47.255Z,8.88
2018-06-23T01:13:16.444Z,8.89
2018-06-23T01:15:45.826Z,8.81
2018-06-23T01:18:15.023Z,8.57
2018-06-23T01:20:44.243Z,8.63
2018-06-23T01:23:13.429Z,8.88
2018-06-23T01:25:42.640Z,8.48
2018-06-23T01:28:11.829Z,8.34
2018-06-23T01:30:41.055Z,8.28
2018-06-23T01:33:10.743Z,8.32
2018-06-23T01:35:39.946Z,8.40
2018-06-23T01:38:09.202Z,8.29
2018-06-23T01:40:38.413Z,8.24
2018-06-23T01:43:07.602Z,8.28
2018-06-23T01:45:36.814Z,8.40
2018-06-23T01:48:06.054Z,8.19
2018-06-23T01:50:35.230Z,8.13
2018-06-23T01:53:04.450Z,8.02
2018-06-23T01:55:33.666Z,8.20
2018-06-23T01:58:02.862Z,8.14
2018-06-23T02:00:32.046Z,8.07
2018-06-23T02:03:04.193Z,8.13
2018-06-23T02:05:33.385Z,8.04
2018-06-23T02:08:02.582Z,8.00
2018-06-23T02:10:31.762Z,8.01
2018-06-23T02:13:00.950Z,8.02
2018-06-23T02:15:35.259Z,8.13
2018-06-23T02:18:09.530Z,8.24
2018-06-23T02:20:44.074Z,8.27
2018-06-23T02:23:18.554Z,8.33
2018-06-23T02:25:53.041Z,8.31
2018-06-23T02:28:27.389Z,8.27
2018-06-23T02:31:01.930Z,8.51
2018-06-23T02:33:36.350Z,8.49
2018-06-23T02:36:05.543Z,8.35
2018-06-23T02:38:34.757Z,8.31
2018-06-23T02:41:03.957Z,8.25
2018-06-23T02:43:33.186Z,8.60
2018-06-23T02:46:02.390Z,8.33
2018-06-23T02:48:31.584Z,8.32
2018-06-23T02:51:00.770Z,8.25
2018-06-23T02:53:29.968Z,8.63
2018-06-23T02:55:59.145Z,8.40
2018-06-23T02:58:28.369Z,8.59
2018-06-23T03:00:57.546Z,8.21
2018-06-23T03:03:26.769Z,8.04
2018-06-23T03:05:55.986Z,7.97
2018-06-23T03:08:25.199Z,7.85
2018-06-23T03:10:54.386Z,7.75
2018-06-23T03:13:23.600Z,7.63
2018-06-23T03:15:52.773Z,7.59
2018-06-23T03:18:21.962Z,7.52
2018-06-23T03:20:51.181Z,7.44
2018-06-23T03:23:20.792Z,7.70
2018-06-23T03:25:49.987Z,7.47
2018-06-23T03:28:19.311Z,7.41
2018-06-23T03:30:48.650Z,7.37
2018-06-23T03:33:17.681Z,7.33
2018-06-23T03:35:46.920Z,7.31
2018-06-23T03:38:16.087Z,7.32
2018-06-23T03:40:45.302Z,7.31
2018-06-23T03:43:14.517Z,7.40
2018-06-23T03:45:45.230Z,7.34
2018-06-23T03:48:14.467Z,7.31
2018-06-23T03:50:43.668Z,7.26
2018-06-23T03:53:13.011Z,7.44
2018-06-23T03:55:42.201Z,7.53
2018-06-23T03:58:11.382Z,7.67
2018-06-23T04:00:44.666Z,7.83
2018-06-23T04:03:13.956Z,8.01
2018-06-23T04:05:46.491Z,8.14
2018-06-23T04:08:15.819Z,8.19
2018-06-23T04:10:45.008Z,8.44
2018-06-23T04:13:14.214Z,8.44
2018-06-23T04:15:43.439Z,8.50
2018-06-23T04:18:12.640Z,8.67
2018-06-23T04:20:41.835Z,8.76
2018-06-23T04:23:11.051Z,8.90
2018-06-23T04:25:40.678Z,9.00
2018-06-23T04:28:09.878Z,9.38
2018-06-23T04:30:39.070Z,9.53
2018-06-23T04:33:08.279Z,9.63
2018-06-23T04:35:37.486Z,9.58
2018-06-23T04:38:06.723Z,9.55
2018-06-23T04:40:35.922Z,9.35
2018-06-23T04:43:05.349Z,9.22
2018-06-23T04:45:34.570Z,9.17
2018-06-23T04:48:03.951Z,10.99
2018-06-23T04:50:33.203Z,13.77
2018-06-23T04:53:02.395Z,12.76
2018-06-23T04:55:31.584Z,12.09
2018-06-23T04:58:00.837Z,13.68
2018-06-23T05:00:30.094Z,15.23
2018-06-23T05:02:59.314Z,17.48
2018-06-23T05:05:28.511Z,18.91
2018-06-23T05:07:57.710Z,20.43
2018-06-23T05:10:26.919Z,21.31
2018-06-23T05:12:56.146Z,22.23
2018-06-23T05:15:25.355Z,22.10
2018-06-23T05:17:54.559Z,22.82
2018-06-23T05:20:23.739Z,23.95
2018-06-23T05:22:52.931Z,24.38
2018-06-23T05:25:22.135Z,23.60
2018-06-23T05:27:51.318Z,21.13
2018-06-23T05:30:20.613Z,22.28
2018-06-23T05:32:49.793Z,22.08
2018-06-23T05:35:19.041Z,23.69
2018-06-23T05:37:48.463Z,24.72
2018-06-23T05:40:17.612Z,22.47
2018-06-23T05:42:46.807Z,21.94
2018-06-23T05:45:16.066Z,22.99
2018-06-23T05:47:45.283Z,24.13
2018-06-23T05:50:14.512Z,22.02
2018-06-23T05:52:43.730Z,23.71
2018-06-23T05:55:12.943Z,24.36
2018-06-23T05:57:42.230Z,25.33
2018-06-23T06:00:11.423Z,24.21
2018-06-23T06:02:40.483Z,23.20
2018-06-23T06:05:09.694Z,22.19
2018-06-23T06:07:38.923Z,22.20
2018-06-23T06:10:08.140Z,23.14
2018-06-23T06:12:37.447Z,23.42
2018-06-23T06:15:06.818Z,25.46
2018-06-23T06:17:36.934Z,26.13
2018-06-23T06:20:08.975Z,24.91
2018-06-23T06:22:39.309Z,26.75
2018-06-23T06:25:08.985Z,24.35
2018-06-23T06:27:38.202Z,23.74
2018-06-23T06:30:09.234Z,25.92
2018-06-23T06:32:38.568Z,26.65
2018-06-23T06:35:08.167Z,22.59
2018-06-23T06:37:37.370Z,19.27
2018-06-23T06:40:07.593Z,18.78
2018-06-23T06:42:36.822Z,23.47
2018-06-23T06:45:06.435Z,24.69
2018-06-23T06:47:35.616Z,20.34
2018-06-23T06:50:04.955Z,17.36
2018-06-23T06:52:34.168Z,16.53
2018-06-23T06:55:03.358Z,16.06
2018-06-23T06:57:32.592Z,15.92
2018-06-23T07:00:01.779Z,18.55
2018-06-23T07:02:31.001Z,22.19
2018-06-23T07:05:00.243Z,19.23
2018-06-23T07:07:29.442Z,16.86
2018-06-23T07:09:58.643Z,15.58
2018-06-23T07:12:27.832Z,15.39
2018-06-23T07:14:57.035Z,15.82
2018-06-23T07:17:26.267Z,17.30
2018-06-23T07:19:55.482Z,18.43
2018-06-23T07:22:24.741Z,19.17
2018-06-23T07:24:54.067Z,19.51
2018-06-23T07:27:23.291Z,21.26
2018-06-23T07:29:52.483Z,19.27
2018-06-23T07:32:21.711Z,17.56
2018-06-23T07:34:51.063Z,17.75
2018-06-23T07:37:20.163Z,17.77
2018-06-23T07:39:49.346Z,18.41
2018-06-23T07:42:18.707Z,18.25
2018-06-23T07:44:47.895Z,17.44
2018-06-23T07:47:17.096Z,17.63
2018-06-23T07:49:46.277Z,18.00
2018-06-23T07:52:15.581Z,17.33
2018-06-23T07:54:44.866Z,16.89
2018-06-23T07:57:14.103Z,19.90
2018-06-23T07:59:43.323Z,22.95
2018-06-23T08:02:12.523Z,24.43
2018-06-23T08:04:41.751Z,24.97
2018-06-23T08:07:10.955Z,20.57
2018-06-23T08:09:40.170Z,20.50
2018-06-23T08:12:09.383Z,22.91
2018-06-23T08:14:38.697Z,22.46
2018-06-23T08:17:07.904Z,23.96
2018-06-23T08:19:37.091Z,24.49
2018-06-23T08:22:06.403Z,22.54
2018-06-23T08:24:35.595Z,24.56
2018-06-23T08:27:04.911Z,24.60
2018-06-23T08:29:34.218Z,21.25
2018-06-23T08:32:03.443Z,21.33
2018-06-23T08:34:32.630Z,21.41
2018-06-23T08:37:02.139Z,19.54
2018-06-23T08:39:31.354Z,20.63
2018-06-23T08:42:00.571Z,24.43
2018-06-23T08:44:29.808Z,21.36
2018-06-23T08:46:59.415Z,19.96
2018-06-23T08:49:28.630Z,19.69
2018-06-23T08:51:57.839Z,18.49
2018-06-23T08:54:27.070Z,19.58
2018-06-23T08:59:56.318Z,22.45
2018-06-23T09:02:25.523Z,23.97
2018-06-23T09:04:55.095Z,24.88
2018-06-23T09:07:24.310Z,26.09
2018-06-23T09:09:53.523Z,26.31
2018-06-23T09:12:22.735Z,26.83
2018-06-23T09:14:52.030Z,26.28
2018-06-23T09:17:21.236Z,24.89
2018-06-23T09:19:50.423Z,21.43
2018-06-23T09:22:19.621Z,19.42
2018-06-23T09:24:48.889Z,23.00
2018-06-23T09:27:18.357Z,23.59
2018-06-23T09:29:47.614Z,26.45
2018-06-23T09:32:16.814Z,26.46
2018-06-23T09:34:46.071Z,27.01
2018-06-23T09:37:15.311Z,27.15
2018-06-23T09:39:44.564Z,26.11
2018-06-23T09:42:13.804Z,26.96
2018-06-23T09:44:43.019Z,27.11
2018-06-23T09:47:12.231Z,26.95
2018-06-23T09:49:41.452Z,28.74
2018-06-23T09:52:10.920Z,25.63
2018-06-23T09:54:40.294Z,28.16
2018-06-23T09:57:09.534Z,28.64
2018-06-23T09:59:39.703Z,25.91
2018-06-23T10:02:09.547Z,21.69
2018-06-23T10:04:38.767Z,19.94
2018-06-23T10:07:07.996Z,22.79
2018-06-23T10:09:37.171Z,22.21
2018-06-23T10:12:06.384Z,21.95
2018-06-23T10:14:35.606Z,23.02
2018-06-23T10:17:04.894Z,25.63
2018-06-23T10:19:34.081Z,24.89
2018-06-23T10:22:03.299Z,24.66
2018-06-23T10:24:32.540Z,24.95
2018-06-23T10:27:01.811Z,22.91
2018-06-23T10:29:31.038Z,24.15
2018-06-23T10:32:00.234Z,25.06
2018-06-23T10:34:29.436Z,23.41
2018-06-23T10:36:58.630Z,21.72
2018-06-23T10:39:27.824Z,24.55
2018-06-23T10:41:57.026Z,24.56
2018-06-23T10:44:26.242Z,24.46
2018-06-23T10:46:55.464Z,24.30
2018-06-23T10:49:24.716Z,23.12
2018-06-23T10:51:53.935Z,23.09
2018-06-23T10:54:23.127Z,24.41
2018-06-23T10:59:20.609Z,24.31
2018-06-23T11:01:49.906Z,24.20
2018-06-23T11:04:19.122Z,23.01
2018-06-23T11:06:48.412Z,23.55
2018-06-23T11:09:17.706Z,23.24
2018-06-23T11:11:47.212Z,23.57
2018-06-23T11:14:16.403Z,24.21
2018-06-23T11:16:45.565Z,22.80
2018-06-23T11:19:14.801Z,23.34
2018-06-23T11:21:43.975Z,23.21
2018-06-23T11:24:13.231Z,22.81
2018-06-23T11:26:42.383Z,22.48
2018-06-23T11:29:11.620Z,22.41
2018-06-23T11:31:40.774Z,22.23
2018-06-23T11:34:10.007Z,22.49
2018-06-23T11:36:39.267Z,23.70
2018-06-23T11:39:10.506Z,22.45
2018-06-23T11:41:40.059Z,22.44
2018-06-23T11:44:09.091Z,21.64
2018-06-23T11:46:38.347Z,22.56
2018-06-23T11:49:07.535Z,22.98
2018-06-23T11:51:36.747Z,23.37
2018-06-23T11:54:05.896Z,23.80
2018-06-23T11:56:35.127Z,23.26
2018-06-23T11:59:05.122Z,23.62
2018-06-23T12:01:34.336Z,22.54
2018-06-23T12:04:03.702Z,23.58
2018-06-23T12:06:32.891Z,23.27
2018-06-23T12:09:01.867Z,22.04
2018-06-23T12:11:31.080Z,23.52
2018-06-23T12:14:00.295Z,24.17
2018-06-23T12:16:29.482Z,23.87
2018-06-23T12:18:58.694Z,23.23
2018-06-23T12:21:27.883Z,23.65
2018-06-23T12:23:57.097Z,22.78
2018-06-23T12:26:26.291Z,22.12
2018-06-23T12:28:55.483Z,22.30
2018-06-23T12:31:24.706Z,20.71
2018-06-23T12:33:53.898Z,20.25
2018-06-23T12:36:23.119Z,20.54
2018-06-23T12:38:52.322Z,20.87
2018-06-23T12:41:21.560Z,21.59
2018-06-23T12:43:50.717Z,21.72
2018-06-23T12:46:19.940Z,21.25
2018-06-23T12:48:49.141Z,21.58
2018-06-23T12:51:18.330Z,21.21
2018-06-23T12:53:47.562Z,20.53
2018-06-23T12:56:16.737Z,21.20
2018-06-23T12:58:45.948Z,21.94
2018-06-23T13:01:15.177Z,21.48
2018-06-23T13:03:44.375Z,21.40
2018-06-23T13:06:13.632Z,21.08
2018-06-23T13:08:42.859Z,21.59
2018-06-23T13:11:12.055Z,21.36
2018-06-23T13:13:41.317Z,21.17
2018-06-23T13:16:10.642Z,20.91
2018-06-23T13:18:39.831Z,21.32
2018-06-23T13:21:09.039Z,21.54
2018-06-23T13:23:38.252Z,22.04
2018-06-23T13:26:07.608Z,21.98
2018-06-23T13:28:36.810Z,21.24
2018-06-23T13:31:06.023Z,21.10
2018-06-23T13:33:35.229Z,21.18
2018-06-23T13:36:07.411Z,22.27
2018-06-23T13:38:36.595Z,21.38
2018-06-23T13:41:06.735Z,21.41
2018-06-23T13:43:36.070Z,21.18
2018-06-23T13:46:05.254Z,20.75
2018-06-23T13:48:35.390Z,21.23
2018-06-23T13:51:04.566Z,21.47
2018-06-23T13:53:33.787Z,21.33
2018-06-23T13:56:02.986Z,21.40
2018-06-23T13:58:32.174Z,21.20
2018-06-23T14:01:01.408Z,20.92
2018-06-23T14:03:30.646Z,20.67
2018-06-23T14:05:59.836Z,20.72
2018-06-23T14:08:29.091Z,21.25
2018-06-23T14:10:58.290Z,21.94
2018-06-23T14:13:27.508Z,22.58
2018-06-23T14:15:56.694Z,22.64
2018-06-23T14:18:25.887Z,22.00
2018-06-23T14:20:55.091Z,20.91
2018-06-23T14:23:24.299Z,20.91
2018-06-23T14:25:53.504Z,21.13
2018-06-23T14:28:22.703Z,20.82
2018-06-23T14:30:51.922Z,21.16
2018-06-23T14:33:21.102Z,21.34
2018-06-23T14:35:50.316Z,21.18
2018-06-23T14:38:19.527Z,20.95
2018-06-23T14:40:48.738Z,20.99
2018-06-23T14:43:17.993Z,21.28
2018-06-23T14:45:47.191Z,20.55
2018-06-23T14:48:16.460Z,20.68
2018-06-23T14:50:45.641Z,20.40
2018-06-23T14:53:14.825Z,20.64
2018-06-23T14:55:44.027Z,20.63
2018-06-23T14:58:13.223Z,20.21
2018-06-23T15:00:42.430Z,20.10
2018-06-23T15:03:11.618Z,20.08
2018-06-23T15:05:41.019Z,20.12
2018-06-23T15:08:27.155Z,20.18
2018-06-23T15:11:13.350Z,20.60
2018-06-23T15:13:42.521Z,20.53
2018-06-23T15:16:11.719Z,20.63
2018-06-23T15:18:40.935Z,20.80
2018-06-23T15:21:10.122Z,20.83
2018-06-23T15:23:39.339Z,20.45
2018-06-23T15:26:08.541Z,20.33
2018-06-23T15:28:37.739Z,20.27
2018-06-23T15:31:06.956Z,20.27
2018-06-23T15:33:36.208Z,19.86
2018-06-23T15:36:05.557Z,19.58
2018-06-23T15:38:36.034Z,19.68
2018-06-23T15:41:05.797Z,19.29
2018-06-23T15:43:35.331Z,19.27
2018-06-23T15:46:04.687Z,19.83
2018-06-23T15:48:33.903Z,20.08
2018-06-23T15:51:04.350Z,19.89
2018-06-23T15:53:33.536Z,19.54
2018-06-23T15:56:02.737Z,19.78
2018-06-23T15:58:31.935Z,19.91
2018-06-23T16:01:01.127Z,19.94
2018-06-23T16:03:30.334Z,20.38
2018-06-23T16:05:59.527Z,20.10
2018-06-23T16:08:28.719Z,20.23
2018-06-23T16:10:57.926Z,20.42
2018-06-23T16:13:27.109Z,20.01
2018-06-23T16:15:56.299Z,19.71
2018-06-23T16:18:25.489Z,19.93
2018-06-23T16:20:54.675Z,19.81
2018-06-23T16:23:23.857Z,19.45
2018-06-23T16:25:53.080Z,19.47
2018-06-23T16:28:22.266Z,19.23
2018-06-23T16:30:51.459Z,19.15
2018-06-23T16:33:20.660Z,18.91
2018-06-23T16:35:49.859Z,18.76
2018-06-23T16:38:19.079Z,18.54
2018-06-23T16:40:48.305Z,18.59
2018-06-23T16:43:17.522Z,18.79
2018-06-23T16:45:46.734Z,18.67
2018-06-23T16:48:15.964Z,18.68
2018-06-23T16:50:46.011Z,18.36
2018-06-23T16:53:15.206Z,18.49
2018-06-23T16:55:44.406Z,18.49
2018-06-23T16:58:13.618Z,18.43
2018-06-23T17:00:42.819Z,18.16
2018-06-23T17:03:12.031Z,18.22
2018-06-23T17:05:41.214Z,18.23
2018-06-23T17:08:10.424Z,18.28
2018-06-23T17:10:39.734Z,18.12
2018-06-23T17:13:08.909Z,17.99
2018-06-23T17:15:38.116Z,17.91
2018-06-23T17:18:07.695Z,17.89
2018-06-23T17:20:36.931Z,17.90
2018-06-23T17:23:06.303Z,17.63
2018-06-23T17:25:35.591Z,17.71
2018-06-23T17:28:04.867Z,17.64
2018-06-23T17:30:34.090Z,17.58
2018-06-23T17:33:03.283Z,17.51
2018-06-23T17:35:32.518Z,17.16
2018-06-23T17:38:01.747Z,17.31
2018-06-23T17:40:30.975Z,17.43
2018-06-23T17:43:00.197Z,17.15
2018-06-23T17:45:29.404Z,17.11
2018-06-23T17:47:58.623Z,17.07
2018-06-23T17:50:27.815Z,17.00
2018-06-23T17:52:57.020Z,16.88
2018-06-23T17:55:26.240Z,16.83
2018-06-23T17:57:55.710Z,16.85
2018-06-23T18:00:24.730Z,16.66
2018-06-23T18:02:53.944Z,16.73
2018-06-23T18:05:23.178Z,16.78
2018-06-23T18:07:52.378Z,16.65
2018-06-23T18:10:21.575Z,16.57
2018-06-23T18:12:50.795Z,16.42
2018-06-23T18:15:19.986Z,16.39
2018-06-23T18:17:49.227Z,16.43
2018-06-23T18:20:18.439Z,16.35
2018-06-23T18:22:47.626Z,16.22
2018-06-23T18:25:16.916Z,16.20
2018-06-23T18:27:46.096Z,16.05
2018-06-23T18:30:15.289Z,15.97
2018-06-23T18:32:44.490Z,15.90
2018-06-23T18:35:13.677Z,15.76
2018-06-23T18:37:42.898Z,15.75
2018-06-23T18:40:12.093Z,15.67
2018-06-23T18:42:41.313Z,15.66
2018-06-23T18:45:10.514Z,15.57
2018-06-23T18:47:39.742Z,15.57
2018-06-23T18:50:08.974Z,15.51
2018-06-23T18:52:38.177Z,15.45
2018-06-23T18:55:07.436Z,15.45
2018-06-23T18:57:36.590Z,15.36
2018-06-23T19:00:07.458Z,15.29
2018-06-23T19:02:37.668Z,15.26
2018-06-23T19:05:06.863Z,15.23
2018-06-23T19:07:36.059Z,15.20
2018-06-23T19:10:05.312Z,15.14
2018-06-23T19:12:34.529Z,15.10
2018-06-23T19:15:03.762Z,15.10
2018-06-23T19:17:32.962Z,15.09
2018-06-23T19:20:02.184Z,15.05
2018-06-23T19:22:31.406Z,14.95
2018-06-23T19:25:03.476Z,14.95
2018-06-23T19:27:32.682Z,14.89
2018-06-23T19:30:01.966Z,15.11
2018-06-23T19:32:31.065Z,14.95
2018-06-23T19:35:00.288Z,14.84
2018-06-23T19:37:29.515Z,14.81
2018-06-23T19:39:59.003Z,14.87
2018-06-23T19:42:28.189Z,15.17
2018-06-23T19:44:57.407Z,15.40
2018-06-23T19:47:26.617Z,15.17
2018-06-23T19:49:55.868Z,15.47
2018-06-23T19:52:25.214Z,15.32
2018-06-23T19:54:54.428Z,14.91
2018-06-23T19:57:23.638Z,14.78
2018-06-23T19:59:52.861Z,15.19
2018-06-23T20:02:22.054Z,15.13
2018-06-23T20:04:51.273Z,14.78
2018-06-23T20:07:20.559Z,14.91
2018-06-23T20:09:49.760Z,14.67
2018-06-23T20:12:19.096Z,14.50
2018-06-23T20:14:48.361Z,14.43
2018-06-23T20:17:17.607Z,14.31
2018-06-23T20:19:46.819Z,14.84
2018-06-23T20:22:16.097Z,14.61
2018-06-23T20:24:45.253Z,14.35
2018-06-23T20:27:14.498Z,14.31
2018-06-23T20:29:43.707Z,14.76
2018-06-23T20:32:12.898Z,14.53
2018-06-23T20:34:42.098Z,14.14
2018-06-23T20:37:11.333Z,14.01
2018-06-23T20:39:40.503Z,13.96
2018-06-23T20:42:09.704Z,13.89
2018-06-23T20:44:38.911Z,14.31
2018-06-23T20:47:08.120Z,14.22
2018-06-23T20:49:37.344Z,13.93
2018-06-23T20:52:06.539Z,13.79
2018-06-23T20:54:35.735Z,13.74
2018-06-23T20:57:04.959Z,13.67
2018-06-23T20:59:34.640Z,13.64
2018-06-23T21:02:03.878Z,13.59
2018-06-23T21:04:33.062Z,13.54
2018-06-23T21:07:02.398Z,13.68
2018-06-23T21:09:31.598Z,13.68
2018-06-23T21:12:00.779Z,13.84
2018-06-23T21:14:31.247Z,13.65
2018-06-23T21:17:00.447Z,13.44
2018-06-23T21:19:29.654Z,13.52
2018-06-23T21:21:58.892Z,13.56
2018-06-23T21:24:28.081Z,13.56
2018-06-23T21:26:57.291Z,13.47
2018-06-23T21:29:26.594Z,13.48
2018-06-23T21:31:55.850Z,13.41
2018-06-23T21:34:25.032Z,13.40
2018-06-23T21:36:54.248Z,13.46
2018-06-23T21:39:23.439Z,13.41
2018-06-23T21:41:52.644Z,13.38
2018-06-23T21:44:21.841Z,13.32
2018-06-23T21:46:51.035Z,13.33
2018-06-23T21:49:20.223Z,13.32
2018-06-23T21:51:49.439Z,13.30
2018-06-23T21:54:18.622Z,13.27
2018-06-23T21:56:47.846Z,13.24
2018-06-23T21:59:17.051Z,13.22
2018-06-23T22:01:46.516Z,13.19
2018-06-23T22:04:15.730Z,13.18
2018-06-23T22:06:44.923Z,13.17
2018-06-23T22:09:14.135Z,13.07
2018-06-23T22:11:43.334Z,12.97
2018-06-23T22:14:12.546Z,12.99
2018-06-23T22:16:41.751Z,12.99
2018-06-23T22:19:10.939Z,13.00
2018-06-23T22:21:40.167Z,13.03
2018-06-23T22:24:09.357Z,12.97
2018-06-23T22:26:38.555Z,13.29
2018-06-23T22:29:07.746Z,13.11
2018-06-23T22:31:37.190Z,12.98
2018-06-23T22:34:06.753Z,12.91
2018-06-23T22:36:36.003Z,13.26
2018-06-23T22:39:08.727Z,13.30
2018-06-23T22:41:37.969Z,13.44
2018-06-23T22:44:07.251Z,13.54
2018-06-23T22:46:36.524Z,13.31
2018-06-23T22:49:05.744Z,13.24
2018-06-23T22:51:34.963Z,13.49
2018-06-23T22:54:04.162Z,13.50
2018-06-23T22:56:33.395Z,13.42
2018-06-23T22:59:02.586Z,13.36
2018-06-23T23:01:31.799Z,13.30
2018-06-23T23:04:01.004Z,13.26
2018-06-23T23:06:30.227Z,13.19
2018-06-23T23:08:59.419Z,13.08
2018-06-23T23:11:28.616Z,13.13
2018-06-23T23:13:57.806Z,13.13
2018-06-23T23:16:27.038Z,13.09
2018-06-23T23:18:56.566Z,12.71
2018-06-23T23:21:25.781Z,12.75
2018-06-23T23:23:54.978Z,12.60
2018-06-23T23:26:24.354Z,12.57
2018-06-23T23:28:53.592Z,12.86
2018-06-23T23:31:22.794Z,12.96
2018-06-23T23:33:51.994Z,12.69
2018-06-23T23:36:21.188Z,12.26
2018-06-23T23:38:50.404Z,12.12
2018-06-23T23:41:19.591Z,12.13
2018-06-23T23:43:48.795Z,11.94
2018-06-23T23:46:17.984Z,11.85
2018-06-23T23:48:47.206Z,11.86
2018-06-23T23:51:16.422Z,11.84
2018-06-23T23:53:45.651Z,11.87
2018-06-23T23:56:14.878Z,11.92
2018-06-23T23:58:44.083Z,11.84
